createdAt,value
2018-08-25T00:00:32.113Z,15.95
2018-08-25T00:01:32.142Z,15.91
2018-08-25T00:02:32.090Z,15.89
2018-08-25T00:03:32.083Z,15.88
2018-08-25T00:04:32.080Z,15.86
2018-08-25T00:05:32.060Z,15.91
2018-08-25T00:06:32.078Z,15.85
2018-08-25T00:07:32.034Z,15.85
2018-08-25T00:08:32.028Z,15.85
2018-08-25T00:09:32.016Z,15.88
2018-08-25T00:10:32.004Z,15.93
2018-08-25T00:11:32.076Z,15.91
2018-08-25T00:12:32.008Z,15.81
2018-08-25T00:13:31.992Z,15.80
2018-08-25T00:14:31.975Z,15.70
2018-08-25T00:15:32.045Z,15.49
2018-08-25T00:16:31.937Z,15.38
2018-08-25T00:17:32.063Z,15.34
2018-08-25T00:18:31.933Z,15.19
2018-08-25T00:19:31.911Z,15.03
2018-08-25T00:20:31.950Z,15.09
2018-08-25T00:21:31.881Z,14.94
2018-08-25T00:22:31.895Z,14.79
2018-08-25T00:23:31.864Z,14.82
2018-08-25T00:24:31.888Z,14.69
2018-08-25T00:25:31.847Z,14.67
2018-08-25T00:26:31.827Z,14.66
2018-08-25T00:27:31.848Z,14.66
2018-08-25T00:28:31.832Z,14.71
2018-08-25T00:29:31.878Z,14.67
2018-08-25T00:30:31.785Z,14.66
2018-08-25T00:31:31.781Z,14.64
2018-08-25T00:32:31.831Z,14.61
2018-08-25T00:33:31.779Z,14.72
2018-08-25T00:34:31.741Z,14.72
2018-08-25T00:35:31.728Z,14.67
2018-08-25T00:36:31.719Z,14.61
2018-08-25T00:37:31.733Z,14.67
2018-08-25T00:38:31.748Z,14.66
2018-08-25T00:39:31.690Z,14.60
2018-08-25T00:40:31.678Z,14.59
2018-08-25T00:41:31.664Z,14.69
2018-08-25T00:42:31.690Z,14.56
2018-08-25T00:43:31.650Z,14.66
2018-08-25T00:44:31.640Z,14.60
2018-08-25T00:45:31.629Z,14.60
2018-08-25T00:46:31.615Z,14.64
2018-08-25T00:47:31.670Z,14.82
2018-08-25T00:48:31.618Z,14.74
2018-08-25T00:49:31.582Z,14.71
2018-08-25T00:50:31.597Z,14.72
2018-08-25T00:51:31.556Z,14.75
2018-08-25T00:52:31.542Z,14.66
2018-08-25T00:53:31.543Z,14.64
2018-08-25T00:54:31.600Z,14.74
2018-08-25T00:55:31.524Z,14.75
2018-08-25T00:56:31.508Z,14.67
2018-08-25T00:57:31.505Z,14.69
2018-08-25T00:58:31.506Z,14.63
2018-08-25T00:59:31.623Z,14.64
2018-08-25T01:00:31.465Z,14.66
2018-08-25T01:01:31.462Z,14.64
2018-08-25T01:02:31.437Z,14.63
2018-08-25T01:03:31.420Z,14.59
2018-08-25T01:04:31.434Z,14.60
2018-08-25T01:05:31.421Z,14.66
2018-08-25T01:06:31.386Z,14.60
2018-08-25T01:07:31.376Z,14.61
2018-08-25T01:08:31.366Z,14.54
2018-08-25T01:09:31.378Z,14.54
2018-08-25T01:10:31.342Z,14.59
2018-08-25T01:11:31.431Z,14.57
2018-08-25T01:12:31.321Z,14.57
2018-08-25T01:13:31.310Z,14.57
2018-08-25T01:14:31.328Z,14.56
2018-08-25T01:15:31.332Z,14.56
2018-08-25T01:16:31.280Z,14.53
2018-08-25T01:17:31.302Z,14.48
2018-08-25T01:18:31.255Z,14.49
2018-08-25T01:19:31.244Z,14.44
2018-08-25T01:20:31.264Z,14.48
2018-08-25T01:21:31.223Z,14.45
2018-08-25T01:22:31.213Z,14.41
2018-08-25T01:23:31.252Z,14.48
2018-08-25T01:24:31.206Z,14.45
2018-08-25T01:25:31.189Z,14.45
2018-08-25T01:26:31.194Z,14.53
2018-08-25T01:27:31.158Z,14.52
2018-08-25T01:28:31.146Z,14.45
2018-08-25T01:29:31.145Z,14.45
2018-08-25T01:30:31.161Z,14.52
2018-08-25T01:31:31.138Z,14.54
2018-08-25T01:32:31.110Z,14.53
2018-08-25T01:33:31.097Z,14.52
2018-08-25T01:34:31.098Z,14.45
2018-08-25T01:35:31.069Z,14.49
2018-08-25T01:36:31.117Z,14.54
2018-08-25T01:37:31.050Z,14.69
2018-08-25T01:38:31.037Z,14.61
2018-08-25T01:39:31.075Z,14.53
2018-08-25T01:40:31.015Z,14.52
2018-08-25T01:41:31.039Z,14.63
2018-08-25T01:42:31.005Z,14.60
2018-08-25T01:43:30.991Z,14.56
2018-08-25T01:44:30.974Z,14.59
2018-08-25T01:45:31.028Z,14.61
2018-08-25T01:46:30.949Z,14.69
2018-08-25T01:47:31.029Z,14.71
2018-08-25T01:48:30.925Z,14.61
2018-08-25T01:49:30.918Z,14.64
2018-08-25T01:50:30.922Z,14.67
2018-08-25T01:51:30.918Z,14.72
2018-08-25T01:52:30.882Z,14.64
2018-08-25T01:53:30.894Z,14.66
2018-08-25T01:54:30.862Z,14.67
2018-08-25T01:55:30.851Z,14.67
2018-08-25T01:56:30.842Z,14.63
2018-08-25T01:57:30.832Z,14.67
2018-08-25T01:58:30.847Z,14.66
2018-08-25T01:59:30.824Z,14.66
2018-08-25T02:00:30.796Z,14.66
2018-08-25T02:01:30.795Z,14.69
2018-08-25T02:02:30.782Z,14.66
2018-08-25T02:03:30.793Z,14.69
2018-08-25T02:04:30.755Z,14.63
2018-08-25T02:05:30.746Z,14.63
2018-08-25T02:06:30.735Z,14.61
2018-08-25T02:07:30.721Z,14.79
2018-08-25T02:08:30.714Z,14.79
2018-08-25T02:09:30.779Z,14.64
2018-08-25T02:10:30.684Z,14.72
2018-08-25T02:11:30.684Z,14.57
2018-08-25T02:12:30.672Z,14.78
2018-08-25T02:13:30.654Z,14.63
2018-08-25T02:14:30.646Z,14.61
2018-08-25T02:15:30.667Z,14.80
2018-08-25T02:16:30.623Z,14.66
2018-08-25T02:17:30.613Z,14.71
2018-08-25T02:18:30.603Z,14.78
2018-08-25T02:19:30.590Z,14.78
2018-08-25T02:20:30.601Z,14.64
2018-08-25T02:21:30.605Z,14.63
2018-08-25T02:22:30.551Z,14.75
2018-08-25T02:23:30.543Z,14.78
2018-08-25T02:24:30.533Z,14.78
2018-08-25T02:25:30.577Z,14.63
2018-08-25T02:26:30.507Z,14.69
2018-08-25T02:27:30.543Z,14.71
2018-08-25T02:28:30.486Z,14.75
2018-08-25T02:29:30.475Z,14.67
2018-08-25T02:30:30.494Z,14.61
2018-08-25T02:31:30.465Z,14.78
2018-08-25T02:32:30.458Z,14.63
2018-08-25T02:33:30.470Z,14.67
2018-08-25T02:34:30.419Z,14.75
2018-08-25T02:35:30.466Z,14.66
2018-08-25T02:36:30.419Z,14.64
2018-08-25T02:37:30.394Z,14.71
2018-08-25T02:38:30.436Z,14.79
2018-08-25T02:39:30.372Z,14.64
2018-08-25T02:40:30.383Z,14.66
2018-08-25T02:41:30.346Z,14.66
2018-08-25T02:42:30.343Z,14.72
2018-08-25T02:43:30.320Z,14.78
2018-08-25T02:44:30.348Z,14.78
2018-08-25T02:45:30.322Z,14.80
2018-08-25T02:46:30.285Z,14.74
2018-08-25T02:47:30.282Z,14.69
2018-08-25T02:48:30.288Z,14.72
2018-08-25T02:49:30.253Z,14.79
2018-08-25T02:50:30.292Z,14.74
2018-08-25T02:51:30.233Z,14.80
2018-08-25T02:52:30.221Z,14.83
2018-08-25T02:53:30.213Z,14.75
2018-08-25T02:54:30.238Z,14.79
2018-08-25T02:55:30.212Z,14.80
2018-08-25T02:56:30.178Z,14.93
2018-08-25T02:57:30.174Z,14.85
2018-08-25T02:58:30.154Z,14.78
2018-08-25T02:59:30.147Z,14.83
2018-08-25T03:00:30.179Z,14.80
2018-08-25T03:01:30.166Z,14.80
2018-08-25T03:02:30.110Z,14.80
2018-08-25T03:03:30.100Z,14.82
2018-08-25T03:04:30.113Z,14.75
2018-08-25T03:05:30.107Z,14.80
2018-08-25T03:06:30.071Z,14.80
2018-08-25T03:07:30.060Z,14.79
2018-08-25T03:08:30.085Z,14.63
2018-08-25T03:09:30.031Z,14.72
2018-08-25T03:10:30.100Z,14.60
2018-08-25T03:11:30.010Z,14.44
2018-08-25T03:12:29.999Z,14.48
2018-08-25T03:13:30.056Z,14.34
2018-08-25T03:14:29.985Z,14.21
2018-08-25T03:15:29.996Z,14.17
2018-08-25T03:16:29.963Z,14.08
2018-08-25T03:17:29.952Z,13.96
2018-08-25T03:18:29.955Z,14.01
2018-08-25T03:19:29.927Z,13.84
2018-08-25T03:20:29.938Z,13.73
2018-08-25T03:21:29.961Z,13.73
2018-08-25T03:22:29.897Z,13.65
2018-08-25T03:23:29.889Z,13.62
2018-08-25T03:24:29.952Z,13.51
2018-08-25T03:25:29.956Z,13.51
2018-08-25T03:26:29.846Z,13.54
2018-08-25T03:27:29.841Z,13.35
2018-08-25T03:28:29.873Z,13.39
2018-08-25T03:29:29.896Z,13.46
2018-08-25T03:30:29.845Z,13.43
2018-08-25T03:31:29.852Z,13.35
2018-08-25T03:32:29.779Z,13.35
2018-08-25T03:33:29.776Z,13.32
2018-08-25T03:34:29.770Z,13.27
2018-08-25T03:35:29.855Z,13.31
2018-08-25T03:36:29.749Z,13.24
2018-08-25T03:37:29.729Z,13.27
2018-08-25T03:38:29.816Z,13.24
2018-08-25T03:39:29.738Z,13.21
2018-08-25T03:40:29.724Z,13.28
2018-08-25T03:41:29.730Z,13.27
2018-08-25T03:42:29.689Z,13.25
2018-08-25T03:43:29.666Z,13.21
2018-08-25T03:44:29.786Z,13.24
2018-08-25T03:45:29.740Z,13.17
2018-08-25T03:46:29.670Z,13.19
2018-08-25T03:47:29.848Z,13.09
2018-08-25T03:48:29.612Z,13.04
2018-08-25T03:49:29.597Z,13.09
2018-08-25T03:50:29.620Z,13.04
2018-08-25T03:51:29.581Z,12.80
2018-08-25T03:52:29.602Z,12.98
2018-08-25T03:53:29.558Z,12.94
2018-08-25T03:54:29.696Z,12.88
2018-08-25T03:55:29.683Z,12.94
2018-08-25T03:56:29.608Z,12.85
2018-08-25T03:57:29.558Z,12.84
2018-08-25T03:58:29.526Z,12.73
2018-08-25T03:59:29.505Z,12.71
2018-08-25T04:00:29.643Z,12.79
2018-08-25T04:01:29.606Z,12.77
2018-08-25T04:02:29.506Z,12.73
2018-08-25T04:03:29.455Z,12.76
2018-08-25T04:04:29.473Z,12.71
2018-08-25T04:05:29.438Z,12.76
2018-08-25T04:06:29.460Z,12.74
2018-08-25T04:07:29.412Z,12.77
2018-08-25T04:08:29.485Z,12.79
2018-08-25T04:09:29.407Z,12.74
2018-08-25T04:10:29.381Z,12.73
2018-08-25T04:11:29.451Z,12.80
2018-08-25T04:12:29.350Z,12.79
2018-08-25T04:13:29.358Z,12.81
2018-08-25T04:14:29.336Z,12.76
2018-08-25T04:15:29.330Z,12.74
2018-08-25T04:16:29.348Z,12.76
2018-08-25T04:17:29.311Z,12.74
2018-08-25T04:18:29.292Z,12.80
2018-08-25T04:19:29.303Z,12.70
2018-08-25T04:20:29.286Z,12.76
2018-08-25T04:21:29.251Z,12.76
2018-08-25T04:22:29.299Z,12.74
2018-08-25T04:23:29.238Z,12.77
2018-08-25T04:24:29.230Z,12.77
2018-08-25T04:25:29.215Z,12.73
2018-08-25T04:26:29.350Z,12.71
2018-08-25T04:27:29.268Z,12.76
2018-08-25T04:28:29.175Z,12.73
2018-08-25T04:29:29.174Z,12.71
2018-08-25T04:30:29.203Z,12.67
2018-08-25T04:31:29.156Z,12.74
2018-08-25T04:32:29.169Z,12.74
2018-08-25T04:33:29.177Z,12.71
2018-08-25T04:34:29.118Z,12.76
2018-08-25T04:35:29.201Z,12.76
2018-08-25T04:36:29.102Z,12.77
2018-08-25T04:37:29.118Z,12.77
2018-08-25T04:38:29.072Z,12.80
2018-08-25T04:39:29.065Z,12.73
2018-08-25T04:40:29.102Z,12.74
2018-08-25T04:41:29.041Z,12.76
2018-08-25T04:42:29.085Z,12.74
2018-08-25T04:43:29.033Z,12.76
2018-08-25T04:44:29.024Z,12.80
2018-08-25T04:45:28.998Z,12.89
2018-08-25T04:46:28.987Z,12.84
2018-08-25T04:47:29.024Z,12.85
2018-08-25T04:48:28.961Z,12.84
2018-08-25T04:49:28.952Z,12.74
2018-08-25T04:50:29.006Z,12.92
2018-08-25T04:51:28.935Z,12.94
2018-08-25T04:52:28.974Z,12.81
2018-08-25T04:53:28.938Z,12.79
2018-08-25T04:54:28.929Z,12.84
2018-08-25T04:55:28.889Z,12.74
2018-08-25T04:56:28.928Z,12.73
2018-08-25T04:57:28.917Z,12.73
2018-08-25T04:58:28.872Z,12.77
2018-08-25T04:59:28.839Z,12.76
2018-08-25T05:00:28.834Z,12.74
2018-08-25T05:01:28.842Z,12.76
2018-08-25T05:02:28.854Z,12.80
2018-08-25T05:03:28.795Z,12.80
2018-08-25T05:04:28.808Z,12.84
2018-08-25T05:05:28.796Z,12.88
2018-08-25T05:06:28.764Z,12.88
2018-08-25T05:07:28.811Z,12.71
2018-08-25T05:08:28.767Z,12.77
2018-08-25T05:09:28.746Z,12.84
2018-08-25T05:10:28.755Z,12.81
2018-08-25T05:11:28.707Z,12.91
2018-08-25T05:12:28.720Z,12.87
2018-08-25T05:13:28.725Z,12.76
2018-08-25T05:14:28.697Z,12.92
2018-08-25T05:15:28.662Z,12.94
2018-08-25T05:16:28.651Z,12.96
2018-08-25T05:17:28.741Z,12.89
2018-08-25T05:18:28.638Z,12.96
2018-08-25T05:19:28.661Z,12.94
2018-08-25T05:20:28.686Z,12.91
2018-08-25T05:21:28.601Z,12.94
2018-08-25T05:22:28.624Z,12.91
2018-08-25T05:23:28.574Z,12.95
2018-08-25T05:24:28.565Z,12.80
2018-08-25T05:25:28.569Z,12.94
2018-08-25T05:26:28.562Z,12.87
2018-08-25T05:27:28.557Z,12.98
2018-08-25T05:28:28.520Z,12.96
2018-08-25T05:29:28.514Z,12.85
2018-08-25T05:30:28.543Z,12.95
2018-08-25T05:31:28.489Z,12.98
2018-08-25T05:32:28.503Z,13.01
2018-08-25T05:33:28.543Z,12.95
2018-08-25T05:34:28.461Z,13.01
2018-08-25T05:35:28.451Z,12.95
2018-08-25T05:36:28.475Z,12.85
2018-08-25T05:37:28.447Z,12.95
2018-08-25T05:38:28.419Z,12.88
2018-08-25T05:39:28.400Z,12.94
2018-08-25T05:40:28.393Z,13.03
2018-08-25T05:41:28.386Z,12.92
2018-08-25T05:42:28.403Z,12.96
2018-08-25T05:43:28.362Z,12.96
2018-08-25T05:44:28.403Z,13.07
2018-08-25T05:45:28.338Z,12.98
2018-08-25T05:46:28.326Z,13.09
2018-08-25T05:47:28.345Z,13.14
2018-08-25T05:48:28.305Z,13.16
2018-08-25T05:49:28.292Z,13.04
2018-08-25T05:50:28.316Z,13.07
2018-08-25T05:51:28.409Z,13.06
2018-08-25T05:52:28.260Z,12.92
2018-08-25T05:53:28.282Z,12.98
2018-08-25T05:54:28.256Z,12.88
2018-08-25T05:55:28.246Z,12.74
2018-08-25T05:56:28.227Z,12.73
2018-08-25T05:57:28.243Z,12.73
2018-08-25T05:58:28.216Z,12.70
2018-08-25T05:59:28.233Z,12.70
2018-08-25T06:00:28.212Z,12.63
2018-08-25T06:01:28.170Z,12.56
2018-08-25T06:02:28.151Z,12.61
2018-08-25T06:03:28.141Z,12.58
2018-08-25T06:04:28.161Z,12.66
2018-08-25T06:05:28.129Z,12.61
2018-08-25T06:06:28.204Z,12.66
2018-08-25T06:07:28.097Z,12.70
2018-08-25T06:08:28.091Z,12.67
2018-08-25T06:09:28.112Z,12.63
2018-08-25T06:10:28.071Z,12.66
2018-08-25T06:11:28.057Z,12.59
2018-08-25T06:12:28.065Z,12.74
2018-08-25T06:13:28.077Z,12.69
2018-08-25T06:14:28.059Z,12.69
2018-08-25T06:15:28.016Z,12.71
2018-08-25T06:16:28.007Z,12.62
2018-08-25T06:17:27.995Z,12.58
2018-08-25T06:18:27.996Z,12.63
2018-08-25T06:19:27.999Z,12.62
2018-08-25T06:20:27.973Z,12.55
2018-08-25T06:21:27.952Z,12.54
2018-08-25T06:22:27.937Z,12.51
2018-08-25T06:23:27.936Z,12.54
2018-08-25T06:24:27.980Z,12.62
2018-08-25T06:25:27.909Z,12.59
2018-08-25T06:26:27.961Z,12.66
2018-08-25T06:27:27.896Z,12.69
2018-08-25T06:28:27.869Z,12.73
2018-08-25T06:29:27.892Z,12.74
2018-08-25T06:30:27.857Z,12.80
2018-08-25T06:31:27.848Z,12.92
2018-08-25T06:32:27.854Z,12.98
2018-08-25T06:33:27.824Z,13.04
2018-08-25T06:34:27.834Z,13.06
2018-08-25T06:35:27.798Z,13.04
2018-08-25T06:36:27.803Z,13.12
2018-08-25T06:37:27.778Z,13.27
2018-08-25T06:38:27.764Z,13.46
2018-08-25T06:39:27.925Z,13.48
2018-08-25T06:40:27.753Z,13.47
2018-08-25T06:41:27.745Z,13.66
2018-08-25T06:42:27.770Z,13.80
2018-08-25T06:43:27.769Z,13.73
2018-08-25T06:44:27.732Z,13.83
2018-08-25T06:45:27.696Z,13.90
2018-08-25T06:46:27.728Z,13.59
2018-08-25T06:47:27.685Z,13.66
2018-08-25T06:48:27.650Z,13.76
2018-08-25T06:49:27.670Z,13.72
2018-08-25T06:50:27.640Z,13.91
2018-08-25T06:51:27.658Z,13.98
2018-08-25T06:52:27.621Z,14.12
2018-08-25T06:53:27.672Z,13.94
2018-08-25T06:54:27.598Z,14.04
2018-08-25T06:55:27.613Z,14.23
2018-08-25T06:56:27.634Z,14.53
2018-08-25T06:57:27.553Z,14.72
2018-08-25T06:58:27.557Z,14.90
2018-08-25T06:59:27.625Z,15.04
2018-08-25T07:00:27.518Z,15.25
2018-08-25T07:01:27.559Z,15.13
2018-08-25T07:02:27.541Z,14.69
2018-08-25T07:03:27.537Z,14.54
2018-08-25T07:04:27.481Z,14.12
2018-08-25T07:05:27.470Z,13.99
2018-08-25T07:06:27.468Z,13.86
2018-08-25T07:07:27.477Z,13.62
2018-08-25T07:08:27.436Z,13.46
2018-08-25T07:09:27.442Z,13.47
2018-08-25T07:10:27.414Z,13.66
2018-08-25T07:11:27.528Z,13.86
2018-08-25T07:12:27.429Z,14.04
2018-08-25T07:13:27.389Z,14.30
2018-08-25T07:14:27.367Z,14.53
2018-08-25T07:15:27.352Z,14.74
2018-08-25T07:16:27.441Z,14.74
2018-08-25T07:17:27.353Z,14.82
2018-08-25T07:18:27.322Z,15.12
2018-08-25T07:19:27.317Z,15.11
2018-08-25T07:20:27.301Z,15.27
2018-08-25T07:21:27.342Z,15.35
2018-08-25T07:22:27.302Z,15.31
2018-08-25T07:23:27.268Z,15.31
2018-08-25T07:24:27.267Z,15.35
2018-08-25T07:25:27.250Z,15.37
2018-08-25T07:26:27.244Z,15.09
2018-08-25T07:27:27.288Z,14.74
2018-08-25T07:28:27.213Z,14.52
2018-08-25T07:29:27.202Z,14.34
2018-08-25T07:30:27.296Z,14.19
2018-08-25T07:31:27.179Z,14.11
2018-08-25T07:32:27.204Z,14.04
2018-08-25T07:33:27.156Z,14.02
2018-08-25T07:34:27.146Z,13.99
2018-08-25T07:35:27.133Z,13.88
2018-08-25T07:36:27.149Z,13.90
2018-08-25T07:37:27.147Z,13.93
2018-08-25T07:38:27.260Z,13.86
2018-08-25T07:39:27.090Z,13.81
2018-08-25T07:40:27.083Z,13.84
2018-08-25T07:41:27.073Z,13.88
2018-08-25T07:42:27.085Z,13.79
2018-08-25T07:43:27.055Z,13.83
2018-08-25T07:44:27.036Z,13.75
2018-08-25T07:45:27.088Z,13.73
2018-08-25T07:46:27.012Z,13.65
2018-08-25T07:47:27.034Z,13.83
2018-08-25T07:48:27.042Z,13.87
2018-08-25T07:49:27.041Z,13.86
2018-08-25T07:50:26.981Z,13.86
2018-08-25T07:51:26.978Z,13.90
2018-08-25T07:52:26.973Z,13.86
2018-08-25T07:53:26.962Z,13.91
2018-08-25T07:54:26.924Z,13.94
2018-08-25T07:55:26.917Z,14.01
2018-08-25T07:56:26.911Z,13.96
2018-08-25T07:57:26.921Z,14.01
2018-08-25T07:58:26.888Z,14.04
2018-08-25T07:59:26.915Z,14.04
2018-08-25T08:00:26.860Z,14.08
2018-08-25T08:01:26.894Z,14.29
2018-08-25T08:02:26.893Z,14.21
2018-08-25T08:03:26.851Z,14.21
2018-08-25T08:04:26.819Z,14.31
2018-08-25T08:05:26.808Z,14.34
2018-08-25T08:06:26.867Z,14.38
2018-08-25T08:07:26.804Z,14.66
2018-08-25T08:08:26.776Z,14.72
2018-08-25T08:09:26.759Z,14.87
2018-08-25T08:10:26.749Z,14.75
2018-08-25T08:11:26.796Z,14.90
2018-08-25T08:12:26.754Z,14.90
2018-08-25T08:13:26.723Z,15.04
2018-08-25T08:14:26.713Z,15.16
2018-08-25T08:15:26.694Z,15.18
2018-08-25T08:16:26.684Z,14.97
2018-08-25T08:17:26.776Z,15.01
2018-08-25T08:18:26.674Z,15.05
2018-08-25T08:19:26.672Z,15.05
2018-08-25T08:20:26.649Z,15.03
2018-08-25T08:21:26.633Z,14.87
2018-08-25T08:22:26.616Z,15.01
2018-08-25T08:23:26.634Z,14.94
2018-08-25T08:24:26.600Z,14.86
2018-08-25T08:25:26.611Z,14.71
2018-08-25T08:26:26.576Z,14.71
2018-08-25T08:27:26.564Z,14.57
2018-08-25T08:28:26.576Z,14.54
2018-08-25T08:29:26.541Z,14.71
2018-08-25T08:30:26.532Z,14.74
2018-08-25T08:31:26.531Z,14.91
2018-08-25T08:32:26.518Z,14.85
2018-08-25T08:33:26.521Z,14.78
2018-08-25T08:34:26.493Z,14.82
2018-08-25T08:35:26.485Z,15.03
2018-08-25T08:36:26.467Z,15.05
2018-08-25T08:37:26.459Z,15.18
2018-08-25T08:38:26.473Z,15.07
2018-08-25T08:39:26.492Z,15.04
2018-08-25T08:40:26.420Z,15.13
2018-08-25T08:41:26.425Z,15.09
2018-08-25T08:42:26.495Z,15.25
2018-08-25T08:43:26.417Z,15.13
2018-08-25T08:44:26.377Z,15.12
2018-08-25T08:45:26.436Z,15.25
2018-08-25T08:46:26.363Z,15.43
2018-08-25T08:47:26.404Z,15.46
2018-08-25T08:48:26.402Z,15.31
2018-08-25T08:49:26.322Z,15.55
2018-08-25T08:50:26.383Z,15.74
2018-08-25T08:51:26.302Z,15.91
2018-08-25T08:52:26.311Z,15.96
2018-08-25T08:53:26.319Z,15.92
2018-08-25T08:54:26.302Z,15.85
2018-08-25T08:55:26.258Z,15.74
2018-08-25T08:56:26.248Z,15.62
2018-08-25T08:57:26.294Z,15.58
2018-08-25T08:58:26.344Z,15.48
2018-08-25T08:59:26.217Z,15.31
2018-08-25T09:00:26.207Z,15.19
2018-08-25T09:01:26.192Z,15.07
2018-08-25T09:02:26.184Z,15.07
2018-08-25T09:03:26.289Z,15.04
2018-08-25T09:04:26.158Z,14.98
2018-08-25T09:05:26.156Z,14.94
2018-08-25T09:06:26.139Z,15.03
2018-08-25T09:07:26.148Z,15.07
2018-08-25T09:08:26.138Z,15.03
2018-08-25T09:09:26.104Z,15.16
2018-08-25T09:10:26.091Z,15.15
2018-08-25T09:11:26.171Z,15.05
2018-08-25T09:12:26.071Z,15.07
2018-08-25T09:13:26.085Z,15.15
2018-08-25T09:14:26.053Z,15.19
2018-08-25T09:15:26.039Z,15.23
2018-08-25T09:16:26.031Z,15.43
2018-08-25T09:17:26.019Z,15.55
2018-08-25T09:18:26.028Z,15.55
2018-08-25T09:19:26.081Z,15.62
2018-08-25T09:20:25.986Z,15.59
2018-08-25T09:21:25.976Z,15.70
2018-08-25T09:22:25.969Z,15.71
2018-08-25T09:23:26.151Z,15.74
2018-08-25T09:24:25.943Z,15.78
2018-08-25T09:25:25.928Z,15.77
2018-08-25T09:26:25.920Z,15.77
2018-08-25T09:27:26.045Z,15.92
2018-08-25T09:28:25.921Z,15.95
2018-08-25T09:29:25.886Z,16.10
2018-08-25T09:30:25.882Z,16.18
2018-08-25T09:31:25.864Z,16.14
2018-08-25T09:32:25.860Z,16.26
2018-08-25T09:33:25.868Z,16.17
2018-08-25T09:34:25.832Z,16.18
2018-08-25T09:35:25.821Z,16.36
2018-08-25T09:36:25.959Z,16.42
2018-08-25T09:37:25.813Z,16.62
2018-08-25T09:38:25.823Z,16.54
2018-08-25T09:39:25.784Z,16.63
2018-08-25T09:40:25.767Z,16.59
2018-08-25T09:41:25.756Z,16.52
2018-08-25T09:42:25.745Z,16.62
2018-08-25T09:43:25.756Z,16.85
2018-08-25T09:44:25.733Z,16.85
2018-08-25T09:45:25.713Z,16.77
2018-08-25T09:46:25.702Z,16.88
2018-08-25T09:47:25.707Z,16.99
2018-08-25T09:48:25.707Z,17.09
2018-08-25T09:49:25.669Z,17.07
2018-08-25T09:50:25.690Z,17.14
2018-08-25T09:51:25.655Z,17.14
2018-08-25T09:52:25.638Z,17.15
2018-08-25T09:53:25.709Z,16.99
2018-08-25T09:54:25.636Z,17.00
2018-08-25T09:55:25.609Z,16.91
2018-08-25T09:56:25.594Z,16.88
2018-08-25T09:57:25.600Z,16.72
2018-08-25T09:58:25.605Z,16.82
2018-08-25T09:59:25.583Z,16.85
2018-08-25T10:00:25.557Z,16.87
2018-08-25T10:01:25.547Z,16.80
2018-08-25T10:02:25.539Z,16.69
2018-08-25T10:03:25.543Z,16.44
2018-08-25T10:04:25.503Z,16.36
2018-08-25T10:05:25.506Z,16.37
2018-08-25T10:06:25.507Z,16.44
2018-08-25T10:07:25.469Z,16.59
2018-08-25T10:08:25.482Z,16.69
2018-08-25T10:09:25.458Z,16.73
2018-08-25T10:10:25.436Z,16.62
2018-08-25T10:11:25.432Z,16.41
2018-08-25T10:12:25.414Z,16.29
2018-08-25T10:13:25.429Z,16.22
2018-08-25T10:14:25.393Z,16.06
2018-08-25T10:15:25.384Z,15.99
2018-08-25T10:16:25.432Z,16.14
2018-08-25T10:17:25.363Z,16.26
2018-08-25T10:18:25.381Z,16.29
2018-08-25T10:19:25.373Z,16.33
2018-08-25T10:20:25.332Z,16.41
2018-08-25T10:21:25.318Z,16.54
2018-08-25T10:22:25.308Z,16.60
2018-08-25T10:23:25.345Z,16.60
2018-08-25T10:24:25.287Z,16.62
2018-08-25T10:25:25.277Z,16.62
2018-08-25T10:26:25.267Z,16.67
2018-08-25T10:27:25.256Z,16.73
2018-08-25T10:28:25.269Z,16.69
2018-08-25T10:29:25.272Z,16.70
2018-08-25T10:30:25.225Z,16.81
2018-08-25T10:31:25.213Z,16.78
2018-08-25T10:32:25.201Z,16.87
2018-08-25T10:33:25.214Z,16.84
2018-08-25T10:34:25.181Z,16.88
2018-08-25T10:35:25.176Z,16.69
2018-08-25T10:36:25.158Z,16.67
2018-08-25T10:37:25.149Z,16.77
2018-08-25T10:38:25.311Z,16.82
2018-08-25T10:39:25.126Z,16.81
2018-08-25T10:40:25.114Z,16.78
2018-08-25T10:41:25.104Z,16.66
2018-08-25T10:42:25.094Z,16.41
2018-08-25T10:43:25.109Z,16.50
2018-08-25T10:44:25.072Z,16.41
2018-08-25T10:45:25.067Z,16.47
2018-08-25T10:46:25.064Z,16.42
2018-08-25T10:47:25.039Z,16.50
2018-08-25T10:48:25.051Z,16.63
2018-08-25T10:49:25.020Z,16.65
2018-08-25T10:50:25.013Z,16.82
2018-08-25T10:51:24.998Z,16.88
2018-08-25T10:52:24.983Z,16.92
2018-08-25T10:53:25.005Z,17.06
2018-08-25T10:54:24.965Z,17.27
2018-08-25T10:55:24.952Z,17.38
2018-08-25T10:56:24.940Z,17.42
2018-08-25T10:57:24.930Z,17.49
2018-08-25T10:58:24.948Z,17.47
2018-08-25T10:59:24.909Z,17.51
2018-08-25T11:00:24.946Z,17.62
2018-08-25T11:01:24.886Z,17.62
2018-08-25T11:02:24.875Z,17.54
2018-08-25T11:03:24.900Z,17.49
2018-08-25T11:04:24.853Z,17.39
2018-08-25T11:05:24.852Z,17.24
2018-08-25T11:06:24.834Z,17.24
2018-08-25T11:07:24.825Z,16.99
2018-08-25T11:08:24.834Z,16.95
2018-08-25T11:09:24.802Z,16.96
2018-08-25T11:10:24.796Z,16.80
2018-08-25T11:11:24.779Z,16.72
2018-08-25T11:12:24.765Z,16.75
2018-08-25T11:13:24.791Z,16.85
2018-08-25T11:14:24.745Z,16.77
2018-08-25T11:15:24.734Z,16.84
2018-08-25T11:16:24.737Z,16.95
2018-08-25T11:17:24.712Z,16.98
2018-08-25T11:18:24.736Z,16.96
2018-08-25T11:19:24.690Z,17.03
2018-08-25T11:20:24.687Z,17.06
2018-08-25T11:21:24.668Z,17.42
2018-08-25T11:22:24.665Z,17.73
2018-08-25T11:23:24.677Z,18.07
2018-08-25T11:24:24.636Z,18.04
2018-08-25T11:25:24.625Z,18.19
2018-08-25T11:26:24.623Z,18.31
2018-08-25T11:27:24.627Z,18.32
2018-08-25T11:28:24.617Z,18.21
2018-08-25T11:29:24.618Z,18.46
2018-08-25T11:30:24.573Z,18.36
2018-08-25T11:31:24.557Z,18.69
2018-08-25T11:32:24.548Z,18.82
2018-08-25T11:33:24.559Z,19.01
2018-08-25T11:34:24.533Z,19.25
2018-08-25T11:35:24.514Z,19.52
2018-08-25T11:36:24.504Z,19.82
2018-08-25T11:37:24.678Z,19.78
2018-08-25T11:38:24.509Z,19.67
2018-08-25T11:39:24.471Z,20.41
2018-08-25T11:40:24.459Z,21.18
2018-08-25T11:41:24.451Z,22.08
2018-08-25T11:42:24.438Z,22.38
2018-08-25T11:43:24.454Z,23.18
2018-08-25T11:44:24.423Z,23.50
2018-08-25T11:45:24.406Z,24.08
2018-08-25T11:46:24.401Z,24.11
2018-08-25T11:47:24.386Z,22.57
2018-08-25T11:48:24.404Z,21.77
2018-08-25T11:49:24.364Z,21.05
2018-08-25T11:50:24.358Z,20.40
2018-08-25T11:51:24.343Z,19.80
2018-08-25T11:52:24.331Z,19.85
2018-08-25T11:53:24.343Z,19.95
2018-08-25T11:54:24.314Z,21.75
2018-08-25T11:55:24.304Z,22.81
2018-08-25T11:56:24.288Z,23.74
2018-08-25T11:57:24.279Z,24.31
2018-08-25T11:58:24.308Z,23.56
2018-08-25T11:59:24.256Z,23.69
2018-08-25T12:00:24.245Z,23.14
2018-08-25T12:01:24.243Z,22.86
2018-08-25T12:02:24.227Z,22.36
2018-08-25T12:03:24.299Z,21.99
2018-08-25T12:04:24.204Z,21.61
2018-08-25T12:05:24.205Z,21.19
2018-08-25T12:06:24.190Z,20.96
2018-08-25T12:07:24.174Z,20.75
2018-08-25T12:08:24.224Z,20.93
2018-08-25T12:09:24.177Z,20.68
2018-08-25T12:10:24.146Z,20.16
2018-08-25T12:11:24.133Z,19.78
2018-08-25T12:12:24.120Z,19.55
2018-08-25T12:13:24.228Z,19.28
2018-08-25T12:14:24.110Z,19.16
2018-08-25T12:15:24.091Z,18.90
2018-08-25T12:16:24.087Z,18.87
2018-08-25T12:17:24.067Z,19.09
2018-08-25T12:18:24.100Z,19.10
2018-08-25T12:19:24.051Z,20.02
2018-08-25T12:20:24.040Z,20.27
2018-08-25T12:21:24.031Z,20.44
2018-08-25T12:22:24.012Z,20.57
2018-08-25T12:23:24.025Z,21.56
2018-08-25T12:24:23.989Z,21.12
2018-08-25T12:25:23.978Z,22.01
2018-08-25T12:26:23.969Z,21.85
2018-08-25T12:27:23.956Z,21.28
2018-08-25T12:28:23.973Z,21.46
2018-08-25T12:29:23.956Z,21.59
2018-08-25T12:30:23.924Z,22.44
2018-08-25T12:31:23.918Z,23.56
2018-08-25T12:32:23.905Z,23.64
2018-08-25T12:33:23.933Z,22.96
2018-08-25T12:34:23.882Z,23.01
2018-08-25T12:35:23.872Z,23.01
2018-08-25T12:36:23.861Z,23.44
2018-08-25T12:37:23.853Z,22.67
2018-08-25T12:38:23.866Z,23.62
2018-08-25T12:39:23.891Z,22.89
2018-08-25T12:40:23.826Z,22.86
2018-08-25T12:41:23.810Z,23.53
2018-08-25T12:42:23.797Z,23.63
2018-08-25T12:43:23.855Z,22.31
2018-08-25T12:44:23.784Z,22.36
2018-08-25T12:45:23.764Z,23.01
2018-08-25T12:46:23.759Z,22.59
2018-08-25T12:47:23.743Z,22.84
2018-08-25T12:48:23.764Z,23.09
2018-08-25T12:49:23.736Z,22.81
2018-08-25T12:50:23.714Z,22.85
2018-08-25T12:51:23.701Z,22.46
2018-08-25T12:52:23.689Z,22.11